createdAt,value
2016-04-19T00:00:56.670Z,10.34
2016-04-19T00:01:56.830Z,10.42
2016-04-19T00:02:56.847Z,10.33
2016-04-19T00:03:56.850Z,10.38
2016-04-19T00:04:56.899Z,10.38
2016-04-19T00:05:56.886Z,10.4
2016-04-19T00:06:56.905Z,10.4
2016-04-19T00:07:56.907Z,10.38
2016-04-19T00:08:56.942Z,10.3
2016-04-19T00:09:56.944Z,10.33
2016-04-19T00:10:56.962Z,10.41
2016-04-19T00:11:57.027Z,10.35
2016-04-19T00:12:56.984Z,10.44
2016-04-19T00:13:57.002Z,10.33
2016-04-19T00:14:57.020Z,10.37
2016-04-19T00:15:57.023Z,10.3
2016-04-19T00:16:57.040Z,10.33
2016-04-19T00:17:57.060Z,10.3
2016-04-19T00:18:57.093Z,10.33
2016-04-19T00:19:57.111Z,10.31
2016-04-19T00:20:57.098Z,10.34
2016-04-19T00:21:57.113Z,10.3
2016-04-19T00:22:57.132Z,10.33
2016-04-19T00:23:57.134Z,10.3
2016-04-19T00:24:57.152Z,10.35
2016-04-19T00:25:57.202Z,10.25
2016-04-19T00:26:57.189Z,10.35
2016-04-19T00:27:57.193Z,10.28
2016-04-19T00:28:57.210Z,10.3
2016-04-19T00:29:57.212Z,10.28
2016-04-19T00:30:57.279Z,10.3
2016-04-19T00:31:57.249Z,10.26
2016-04-19T00:32:57.268Z,10.28
2016-04-19T00:33:57.318Z,10.28
2016-04-19T00:34:57.304Z,10.31
2016-04-19T00:35:57.307Z,10.31
2016-04-19T00:36:57.325Z,10.22
2016-04-19T00:37:57.344Z,10.25
2016-04-19T00:38:57.361Z,10.26
2016-04-19T00:39:57.365Z,10.19
2016-04-19T00:40:57.383Z,10.28
2016-04-19T00:41:57.386Z,10.25
2016-04-19T00:42:57.389Z,10.2
2016-04-19T00:43:57.423Z,10.16
2016-04-19T00:45:11.550Z,10.34
2016-04-19T00:45:57.444Z,10.25
2016-04-19T00:46:57.461Z,10.19
2016-04-19T00:47:57.480Z,10.19
2016-04-19T00:48:57.530Z,10.23
2016-04-19T00:49:57.502Z,10.3
2016-04-19T00:50:57.535Z,10.26
2016-04-19T00:51:57.522Z,10.19
2016-04-19T00:52:57.540Z,10.23
2016-04-19T00:53:57.558Z,10.2
2016-04-19T00:54:57.576Z,10.17
2016-04-19T00:55:57.579Z,10.12
2016-04-19T00:56:57.614Z,10.16
2016-04-19T00:57:57.616Z,10.15
2016-04-19T00:58:57.619Z,10.19
2016-04-19T00:59:57.637Z,10.19
2016-04-19T01:00:57.656Z,10.15
2016-04-19T01:01:57.659Z,10.16
2016-04-19T01:02:57.693Z,10.1
2016-04-19T01:03:57.695Z,10.15
2016-04-19T01:04:57.713Z,10.01
2016-04-19T01:05:57.716Z,10.04
2016-04-19T01:06:57.751Z,10.01
2016-04-19T01:07:57.753Z,10.09
2016-04-19T01:08:57.771Z,10.1
2016-04-19T01:09:57.805Z,9.94
2016-04-19T01:10:57.808Z,10.04
2016-04-19T01:11:57.795Z,10.01
2016-04-19T01:12:57.814Z,9.95
2016-04-19T01:13:57.831Z,9.99
2016-04-19T01:14:57.834Z,10.01
2016-04-19T01:15:57.853Z,10.04
2016-04-19T01:16:57.870Z,9.95
2016-04-19T01:17:57.905Z,9.89
2016-04-19T01:18:57.923Z,9.98
2016-04-19T01:19:57.925Z,9.91
2016-04-19T01:20:57.928Z,9.94
2016-04-19T01:21:57.931Z,9.91
2016-04-19T01:22:57.949Z,9.87
2016-04-19T01:23:57.968Z,9.89
2016-04-19T01:24:58.017Z,9.87
2016-04-19T01:25:58.004Z,9.87
2016-04-19T01:26:58.007Z,9.87
2016-04-19T01:27:58.025Z,9.95
2016-04-19T01:28:58.044Z,9.84
2016-04-19T01:29:58.062Z,9.84
2016-04-19T01:30:58.080Z,9.82
2016-04-19T01:31:58.067Z,9.87
2016-04-19T01:32:58.101Z,9.86
2016-04-19T01:33:58.104Z,9.82
2016-04-19T01:34:58.138Z,9.8
2016-04-19T01:35:58.125Z,9.83
2016-04-19T01:36:58.143Z,9.79
2016-04-19T01:37:58.161Z,9.84
2016-04-19T01:38:58.212Z,9.82
2016-04-19T01:39:58.198Z,9.91
2016-04-19T01:40:58.201Z,9.83
2016-04-19T01:41:58.219Z,9.83
2016-04-19T01:42:58.222Z,9.82
2016-04-19T01:43:58.240Z,9.84
2016-04-19T01:44:58.242Z,9.84
2016-04-19T01:45:58.292Z,9.83
2016-04-19T01:46:58.280Z,9.83
2016-04-19T01:47:58.298Z,9.87
2016-04-19T01:48:58.316Z,9.79
2016-04-19T01:49:58.319Z,9.76
2016-04-19T01:50:58.336Z,9.87
2016-04-19T01:51:58.356Z,9.83
2016-04-19T01:52:58.357Z,9.69
2016-04-19T01:53:58.376Z,9.74
2016-04-19T01:54:58.380Z,9.72
2016-04-19T01:55:58.397Z,9.72
2016-04-19T01:56:58.416Z,9.69
2016-04-19T01:57:58.418Z,9.82
2016-04-19T01:58:57.687Z,9.74
2016-04-19T01:59:58.485Z,9.77
2016-04-19T02:00:58.488Z,9.73
2016-04-19T02:01:58.491Z,9.76
2016-04-19T02:02:58.494Z,9.74
2016-04-19T02:03:58.512Z,9.66
2016-04-19T02:04:58.515Z,9.66
2016-04-19T02:05:58.534Z,9.66
2016-04-19T02:06:58.552Z,9.72
2016-04-19T02:07:58.570Z,9.69
2016-04-19T02:08:58.573Z,9.69
2016-04-19T02:09:58.592Z,9.66
2016-04-19T02:10:58.610Z,9.65
2016-04-19T02:11:58.628Z,9.62
2016-04-19T02:12:58.631Z,9.64
2016-04-19T02:13:58.648Z,9.56
2016-04-19T02:14:58.667Z,9.54
2016-04-19T02:15:58.669Z,9.62
2016-04-19T02:16:58.688Z,9.62
2016-04-19T02:17:58.691Z,9.62
2016-04-19T02:18:58.709Z,9.56
2016-04-19T02:19:58.711Z,9.54
2016-04-19T02:20:58.730Z,9.55
2016-04-19T02:21:58.764Z,9.59
2016-04-19T02:22:58.783Z,9.58
2016-04-19T02:23:58.769Z,9.55
2016-04-19T02:24:58.803Z,9.55
2016-04-19T02:25:58.806Z,9.51
2016-04-19T02:26:58.808Z,9.44
2016-04-19T02:27:58.843Z,9.43
2016-04-19T02:28:58.846Z,9.48
2016-04-19T02:29:58.864Z,9.51
2016-04-19T02:30:58.883Z,9.55
2016-04-19T02:31:58.901Z,9.54
2016-04-19T02:32:58.904Z,9.48
2016-04-19T02:33:58.922Z,9.54
2016-04-19T02:34:58.924Z,9.48
2016-04-19T02:35:58.943Z,9.5
2016-04-19T02:36:58.977Z,9.44
2016-04-19T02:37:58.964Z,9.47
2016-04-19T02:38:58.966Z,9.41
2016-04-19T02:39:58.985Z,9.5
2016-04-19T02:40:58.987Z,9.39
2016-04-19T02:41:59.021Z,9.39
2016-04-19T02:42:59.039Z,9.4
2016-04-19T02:43:59.058Z,9.36
2016-04-19T02:44:59.061Z,9.44
2016-04-19T02:45:59.079Z,9.34
2016-04-19T02:46:59.082Z,9.37
2016-04-19T02:47:59.101Z,9.4
2016-04-19T02:48:59.118Z,9.4
2016-04-19T02:49:59.137Z,9.37
2016-04-19T02:50:59.139Z,9.39
2016-04-19T02:51:59.158Z,9.29
2016-04-19T02:52:59.176Z,9.32
2016-04-19T02:53:59.178Z,9.37
2016-04-19T02:54:59.181Z,9.29
2016-04-19T02:55:59.199Z,9.25
2016-04-19T02:56:59.218Z,9.28
2016-04-19T02:57:59.252Z,9.21
2016-04-19T02:58:59.255Z,9.19
2016-04-19T02:59:59.242Z,9.22
2016-04-19T03:00:59.260Z,9.23
2016-04-19T03:01:59.278Z,9.21
2016-04-19T03:02:59.296Z,9.19
2016-04-19T03:03:59.315Z,9.18
2016-04-19T03:04:59.333Z,9.22
2016-04-19T03:05:59.335Z,9.25
2016-04-19T03:06:59.339Z,9.23
2016-04-19T03:07:59.357Z,9.21
2016-04-19T03:08:59.376Z,9.25
2016-04-19T03:09:59.378Z,9.21
2016-04-19T03:10:59.396Z,9.25
2016-04-19T03:11:59.415Z,9.28
2016-04-19T03:12:59.464Z,9.14
2016-04-19T03:13:59.435Z,9.18
2016-04-19T03:14:59.453Z,9.19
2016-04-19T03:15:59.487Z,9.19
2016-04-19T03:16:59.475Z,9.21
2016-04-19T03:17:59.493Z,9.14
2016-04-19T03:18:59.512Z,9.23
2016-04-19T03:19:59.531Z,9.23
2016-04-19T03:20:59.533Z,9.14
2016-04-19T03:21:59.536Z,9.1
2016-04-19T03:22:59.553Z,9.16
2016-04-19T03:23:59.572Z,9.19
2016-04-19T03:24:59.590Z,9.1
2016-04-19T03:25:59.592Z,9.06
2016-04-19T03:26:59.611Z,9.21
2016-04-19T03:27:59.629Z,9.22
2016-04-19T03:28:59.632Z,9.16
2016-04-19T03:29:59.650Z,9.19
2016-04-19T03:30:59.653Z,9.13
2016-04-19T03:31:59.672Z,9.11
2016-04-19T03:32:59.681Z,9.1
2016-04-19T03:33:59.774Z,9.04
2016-04-19T03:34:59.804Z,9.04
2016-04-19T03:35:59.866Z,9.1
2016-04-19T03:36:59.927Z,9.08
2016-04-19T03:37:59.985Z,9.03
2016-04-19T03:39:00.020Z,9
2016-04-19T03:40:00.053Z,9.02
2016-04-19T03:41:00.072Z,9.02
2016-04-19T03:42:00.106Z,9.03
2016-04-19T03:43:00.123Z,8.95
2016-04-19T03:44:00.131Z,8.99
2016-04-19T03:45:00.155Z,9.06
2016-04-19T03:46:00.162Z,9.14
2016-04-19T03:47:00.186Z,9.06
2016-04-19T03:48:00.209Z,9.08
2016-04-19T03:49:00.229Z,8.97
2016-04-19T03:50:00.250Z,9.08
2016-04-19T03:51:00.255Z,9.13
2016-04-19T03:52:00.259Z,9.16
2016-04-19T03:53:00.280Z,9.06
2016-04-19T03:54:00.298Z,9.08
2016-04-19T03:55:00.301Z,9.06
2016-04-19T03:56:00.352Z,8.97
2016-04-19T03:57:00.340Z,9.08
2016-04-19T03:58:00.343Z,9
2016-04-19T03:59:00.361Z,9.08
2016-04-19T04:00:00.364Z,9.02
2016-04-19T04:01:00.383Z,8.95
2016-04-19T04:02:00.401Z,9.08
2016-04-19T04:03:00.421Z,9.1
2016-04-19T04:04:00.424Z,8.97
2016-04-19T04:05:00.442Z,8.99
2016-04-19T04:06:00.445Z,8.99
2016-04-19T04:07:00.462Z,9.02
2016-04-19T04:08:00.481Z,8.99
2016-04-19T04:09:00.500Z,9.06
2016-04-19T04:10:00.503Z,9.02
2016-04-19T04:11:00.521Z,8.99
2016-04-19T04:12:00.539Z,9.11
2016-04-19T04:13:00.557Z,8.99
2016-04-19T04:14:00.560Z,9.1
2016-04-19T04:15:00.578Z,9.03
2016-04-19T04:16:00.581Z,8.99
2016-04-19T04:17:00.630Z,9.1
2016-04-19T04:18:00.617Z,8.97
2016-04-19T04:19:00.619Z,9.04
2016-04-19T04:20:00.638Z,8.97
2016-04-19T04:21:00.657Z,8.91
2016-04-19T04:22:00.675Z,9.02
2016-04-19T04:23:00.678Z,9.04
2016-04-19T04:24:00.697Z,9.04
2016-04-19T04:25:00.714Z,9.08
2016-04-19T04:26:00.717Z,9.06
2016-04-19T04:27:00.735Z,9.08
2016-04-19T04:28:00.738Z,8.99
2016-04-19T04:29:00.772Z,8.95
2016-04-19T04:30:00.790Z,8.97
2016-04-19T04:31:00.777Z,8.92
2016-04-19T04:32:00.779Z,8.99
2016-04-19T04:33:00.798Z,9
2016-04-19T04:34:00.801Z,8.97
2016-04-19T04:35:00.820Z,9.1
2016-04-19T04:36:00.838Z,9
2016-04-19T04:37:00.871Z,9.04
2016-04-19T04:38:00.874Z,9.1
2016-04-19T04:39:00.908Z,8.99
2016-04-19T04:40:00.895Z,8.97
2016-04-19T04:41:00.914Z,8.95
2016-04-19T04:42:00.917Z,8.95
2016-04-19T04:43:00.920Z,9.03
2016-04-19T04:44:00.937Z,8.97
2016-04-19T04:45:00.956Z,9.08
2016-04-19T04:46:00.974Z,9
2016-04-19T04:47:00.977Z,9.03
2016-04-19T04:48:00.995Z,9.02
2016-04-19T04:49:01.013Z,8.97
2016-04-19T04:50:01.016Z,9.08
2016-04-19T04:51:01.033Z,8.99
2016-04-19T04:52:01.036Z,9
2016-04-19T04:53:01.055Z,9.03
2016-04-19T04:54:01.074Z,8.95
2016-04-19T04:55:00.920Z,9.02
2016-04-19T04:56:01.095Z,9.02
2016-04-19T04:57:01.113Z,9
2016-04-19T04:58:01.132Z,9.06
2016-04-19T04:59:01.135Z,8.97
2016-04-19T05:00:01.183Z,9.02
2016-04-19T05:01:01.171Z,9.1
2016-04-19T05:02:01.188Z,9.02
2016-04-19T05:03:01.207Z,9
2016-04-19T05:04:01.209Z,9.03
2016-04-19T05:05:01.212Z,8.95
2016-04-19T05:06:01.231Z,9
2016-04-19T05:07:01.249Z,8.94
2016-04-19T05:08:01.268Z,9.03
2016-04-19T05:09:01.254Z,9.13
2016-04-19T05:10:01.289Z,9.02
2016-04-19T05:11:01.292Z,8.94
2016-04-19T05:12:01.294Z,9.1
2016-04-19T05:13:01.328Z,8.95
2016-04-19T05:14:01.331Z,9.04
2016-04-19T05:15:01.333Z,9.06
2016-04-19T05:16:01.352Z,9.04
2016-04-19T05:17:01.386Z,9.04
2016-04-19T05:18:01.373Z,9.08
2016-04-19T05:19:01.392Z,9.04
2016-04-19T05:20:01.409Z,9.06
2016-04-19T05:21:01.412Z,9.03
2016-04-19T05:22:01.461Z,9.08
2016-04-19T05:23:01.449Z,9.16
2016-04-19T05:24:01.591Z,9.13
2016-04-19T05:25:01.469Z,9.13
2016-04-19T05:26:01.472Z,9.18
2016-04-19T05:27:01.506Z,9.06
2016-04-19T05:28:01.508Z,9.04
2016-04-19T05:29:01.543Z,9.13
2016-04-19T05:30:01.546Z,9.22
2016-04-19T05:31:01.563Z,9.18
2016-04-19T05:32:01.551Z,9.25
2016-04-19T05:33:01.569Z,9.14
2016-04-19T05:34:01.604Z,9.19
2016-04-19T05:35:01.606Z,9.19
2016-04-19T05:36:01.624Z,9.21
2016-04-19T05:37:01.627Z,9.23
2016-04-19T05:38:01.645Z,9.34
2016-04-19T05:39:01.649Z,9.32
2016-04-19T05:40:01.666Z,9.37
2016-04-19T05:41:01.669Z,9.43
2016-04-19T05:42:01.703Z,9.4
2016-04-19T05:43:01.737Z,9.37
2016-04-19T05:44:01.740Z,9.4
2016-04-19T05:45:01.742Z,9.4
2016-04-19T05:46:01.745Z,9.32
2016-04-19T05:47:01.763Z,9.44
2016-04-19T05:48:01.767Z,9.4
2016-04-19T05:49:01.800Z,9.32
2016-04-19T05:50:01.818Z,9.41
2016-04-19T05:51:01.837Z,9.51
2016-04-19T05:52:01.824Z,9.48
2016-04-19T05:53:01.842Z,9.5
2016-04-19T05:54:01.860Z,9.47
2016-04-19T05:55:01.863Z,9.54
2016-04-19T05:56:01.881Z,9.59
2016-04-19T05:57:01.899Z,9.61
2016-04-19T05:58:01.964Z,9.68
2016-04-19T05:59:01.936Z,9.66
2016-04-19T06:00:01.955Z,9.74
2016-04-19T06:01:01.941Z,9.73
2016-04-19T06:02:01.960Z,9.83
2016-04-19T06:03:01.978Z,9.86
2016-04-19T06:04:01.996Z,9.8
2016-04-19T06:05:02.015Z,9.83
2016-04-19T06:06:02.017Z,9.92
2016-04-19T06:07:02.036Z,9.87
2016-04-19T06:08:02.023Z,9.87
2016-04-19T06:09:02.041Z,9.89
2016-04-19T06:10:02.075Z,9.89
2016-04-19T06:11:02.078Z,9.98
2016-04-19T06:12:02.096Z,9.99
2016-04-19T06:13:02.114Z,9.95
2016-04-19T06:14:02.117Z,10.04
2016-04-19T06:15:02.120Z,10.05
2016-04-19T06:16:02.154Z,10.07
2016-04-19T06:17:02.156Z,10.05
2016-04-19T06:18:02.175Z,10.07
2016-04-19T06:19:02.225Z,10.09
2016-04-19T06:20:02.228Z,10.15
2016-04-19T06:21:02.214Z,10.12
2016-04-19T06:22:02.232Z,10.26
2016-04-19T06:23:02.251Z,10.26
2016-04-19T06:24:02.253Z,10.28
2016-04-19T06:25:02.272Z,10.4
2016-04-19T06:26:02.290Z,10.41
2016-04-19T06:27:02.292Z,10.54
2016-04-19T06:28:02.327Z,10.51
2016-04-19T06:29:02.329Z,10.49
2016-04-19T06:30:02.348Z,10.54
2016-04-19T06:31:02.350Z,10.54
2016-04-19T06:32:02.369Z,10.49
2016-04-19T06:33:02.371Z,10.44
2016-04-19T06:34:02.421Z,10.53
2016-04-19T06:35:02.408Z,10.61
2016-04-19T06:36:02.442Z,10.64
2016-04-19T06:37:02.445Z,10.75
2016-04-19T06:38:02.447Z,10.74
2016-04-19T06:39:02.466Z,10.97
2016-04-19T06:40:02.484Z,11.02
2016-04-19T06:41:02.502Z,11.17
2016-04-19T06:42:02.504Z,11.23
2016-04-19T06:43:02.523Z,11.44
2016-04-19T06:44:02.541Z,11.57
2016-04-19T06:45:02.560Z,11.68
2016-04-19T06:46:02.562Z,11.63
2016-04-19T06:47:02.581Z,11.63
2016-04-19T06:48:02.599Z,11.68
2016-04-19T06:49:02.601Z,11.68
2016-04-19T06:50:02.620Z,11.77
2016-04-19T06:51:02.654Z,11.9
2016-04-19T06:52:02.673Z,11.97
2016-04-19T06:53:02.675Z,12.12
2016-04-19T06:54:02.693Z,12.06
2016-04-19T06:55:02.712Z,12.07
2016-04-19T06:56:02.714Z,12.21
2016-04-19T06:57:02.733Z,12.29
2016-04-19T06:58:02.751Z,12.39
2016-04-19T06:59:02.753Z,12.45
2016-04-19T07:00:02.788Z,12.46
2016-04-19T07:01:02.806Z,12.43
2016-04-19T07:02:02.808Z,12.55
2016-04-19T07:03:02.858Z,12.62
2016-04-19T07:04:02.829Z,12.76
2016-04-19T07:05:02.864Z,12.94
2016-04-19T07:06:02.866Z,13.3
2016-04-19T07:07:02.885Z,13.7
2016-04-19T07:08:02.918Z,14
2016-04-19T07:09:02.937Z,14.28
2016-04-19T07:10:02.954Z,14.32
2016-04-19T07:11:02.943Z,14.43
2016-04-19T07:12:02.976Z,14.4
2016-04-19T07:13:02.994Z,14.17
